Time,TemperatureF,DewpointF,PressureIn,WindDirection,WindDirectionDegrees,WindSpeedMPH,WindSpeedGustMPH,Humidity,HourlyPrecipIn,Conditions,Clouds,dailyrainin,SoftwareType,DateUTC
2013-01-23 00:02:00,34.0,-99.9,-100.00,South,191,9.0,13.0,-999,-99.99,,,-99.99,,2013-01-23 07:02:00,
2013-01-23 00:13:00,34.0,-99.9,-100.00,SSW,197,11.0,17.0,-999,-99.99,,,-99.99,,2013-01-23 07:13:00,
2013-01-23 00:23:00,34.0,-99.9,-100.00,SSW,197,11.0,17.0,-999,-99.99,,,-99.99,,2013-01-23 07:23:00,
2013-01-23 00:33:00,34.0,-99.9,-100.00,SSW,197,11.0,17.0,-999,-99.99,,,-99.99,,2013-01-23 07:33:00,
2013-01-23 00:43:00,34.0,-99.9,-100.00,SSW,212,12.0,15.0,-999,-99.99,,,-99.99,,2013-01-23 07:43:00,
2013-01-23 00:53:00,34.0,-99.9,-100.00,SSW,212,12.0,15.0,-999,-99.99,,,-99.99,,2013-01-23 07:53:00,
2013-01-23 01:02:00,34.0,-99.9,-100.00,SSW,194,13.0,19.0,-999,-99.99,,,-99.99,,2013-01-23 08:02:00,
2013-01-23 01:13:00,35.0,-99.9,-100.00,South,186,17.0,23.0,-999,-99.99,,,-99.99,,2013-01-23 08:13:00,
2013-01-23 01:23:00,35.0,-99.9,-100.00,South,186,17.0,23.0,-999,-99.99,,,-99.99,,2013-01-23 08:23:00,
2013-01-23 01:33:00,35.0,-99.9,-100.00,South,186,17.0,23.0,-999,-99.99,,,-99.99,,2013-01-23 08:33:00,
2013-01-23 01:43:00,34.0,-99.9,-100.00,South,191,16.0,21.0,-999,-99.99,,,-99.99,,2013-01-23 08:43:00,
2013-01-23 01:53:00,34.0,-99.9,-100.00,South,189,15.0,19.0,-999,-99.99,,,-99.99,,2013-01-23 08:53:00,
2013-01-23 02:03:00,34.0,-99.9,-100.00,South,189,15.0,19.0,-999,-99.99,,,-99.99,,2013-01-23 09:03:00,
2013-01-23 02:12:00,34.0,-99.9,-100.00,South,182,11.0,15.0,-999,-99.99,,,-99.99,,2013-01-23 09:12:00,
2013-01-23 02:23:00,34.0,-99.9,-100.00,South,182,11.0,15.0,-999,-99.99,,,-99.99,,2013-01-23 09:23:00,
2013-01-23 02:33:00,34.0,-99.9,-100.00,South,182,11.0,15.0,-999,-99.99,,,-99.99,,2013-01-23 09:33:00,
2013-01-23 02:44:00,33.0,-99.9,-100.00,SW,220,12.0,18.0,-999,-99.99,,,-99.99,,2013-01-23 09:44:00,
2013-01-23 02:53:00,33.0,-99.9,-100.00,SW,220,12.0,18.0,-999,-99.99,,,-99.99,,2013-01-23 09:53:00,
2013-01-23 03:03:00,33.0,-99.9,-100.00,SW,222,11.0,15.0,-999,-99.99,,,-99.99,,2013-01-23 10:03:00,
2013-01-23 03:13:00,33.0,-99.9,-100.00,SW,214,11.0,17.0,-999,-99.99,,,-99.99,,2013-01-23 10:13:00,
2013-01-23 03:23:00,33.0,-99.9,-100.00,SW,214,11.0,17.0,-999,-99.99,,,-99.99,,2013-01-23 10:23:00,
2013-01-23 03:30:00,33.0,-99.9,-100.00,SW,227,8.0,14.0,-999,-99.99,,,-99.99,,2013-01-23 10:30:00,
2013-01-23 03:33:00,33.0,-99.9,-100.00,SW,214,11.0,17.0,-999,-99.99,,,-99.99,,2013-01-23 10:33:00,
2013-01-23 03:43:00,34.0,-99.9,-100.00,SW,218,11.0,17.0,-999,-99.99,,,-99.99,,2013-01-23 10:43:00,
2013-01-23 03:53:00,33.0,-99.9,-100.00,SW,227,8.0,14.0,-999,-99.99,,,-99.99,,2013-01-23 10:53:00,
2013-01-23 04:03:00,33.0,-99.9,-100.00,SW,227,8.0,14.0,-999,-99.99,,,-99.99,,2013-01-23 11:03:00,
2013-01-23 04:12:00,33.0,-99.9,-100.00,SW,227,8.0,14.0,-999,-99.99,,,-99.99,,2013-01-23 11:12:00,
2013-01-23 04:23:00,33.0,-99.9,-100.00,SW,227,8.0,14.0,-999,-99.99,,,-99.99,,2013-01-23 11:23:00,
2013-01-23 04:43:00,33.0,-99.9,-100.00,WSW,245,11.0,18.0,-999,-99.99,,,-99.99,,2013-01-23 11:43:00,
2013-01-23 04:53:00,33.0,-99.9,-100.00,WSW,245,11.0,18.0,-999,-99.99,,,-99.99,,2013-01-23 11:53:00,
2013-01-23 05:03:00,34.0,-99.9,-100.00,SW,232,11.0,16.0,-999,-99.99,,,-99.99,,2013-01-23 12:03:00,
2013-01-23 05:13:00,33.0,-99.9,-100.00,SW,221,11.0,17.0,-999,-99.99,,,-99.99,,2013-01-23 12:13:00,
2013-01-23 05:23:00,33.0,-99.9,-100.00,SW,221,11.0,17.0,-999,-99.99,,,-99.99,,2013-01-23 12:23:00,
2013-01-23 05:33:00,33.0,-99.9,-100.00,SW,221,11.0,17.0,-999,-99.99,,,-99.99,,2013-01-23 12:33:00,
2013-01-23 05:43:00,35.0,-99.9,-100.00,SW,227,11.0,19.0,-999,-99.99,,,-99.99,,2013-01-23 12:43:00,
2013-01-23 05:53:00,35.0,-99.9,-100.00,SW,227,11.0,19.0,-999,-99.99,,,-99.99,,2013-01-23 12:53:00,
2013-01-23 06:04:00,34.0,-99.9,-100.00,SSW,212,11.0,18.0,-999,-99.99,,,-99.99,,2013-01-23 13:04:00,
2013-01-23 06:13:00,34.0,-99.9,-100.00,SW,219,13.0,20.0,-999,-99.99,,,-99.99,,2013-01-23 13:13:00,
2013-01-23 06:23:00,34.0,-99.9,-100.00,SW,219,13.0,20.0,-999,-99.99,,,-99.99,,2013-01-23 13:23:00,
2013-01-23 06:34:00,34.0,-99.9,-100.00,SW,219,13.0,20.0,-999,-99.99,,,-99.99,,2013-01-23 13:34:00,
2013-01-23 06:43:00,35.0,-99.9,-100.00,SW,216,12.0,18.0,-999,-99.99,,,-99.99,,2013-01-23 13:43:00,
2013-01-23 06:53:00,35.0,-99.9,-100.00,SW,216,12.0,18.0,-999,-99.99,,,-99.99,,2013-01-23 13:53:00,
2013-01-23 07:03:00,34.0,-99.9,-100.00,SSW,213,13.0,20.0,-999,-99.99,,,-99.99,,2013-01-23 14:03:00,
2013-01-23 07:12:00,34.0,-99.9,-100.00,SSW,209,16.0,22.0,-999,-99.99,,,-99.99,,2013-01-23 14:12:00,
2013-01-23 07:24:00,34.0,-99.9,-100.00,SSW,209,16.0,22.0,-999,-99.99,,,-99.99,,2013-01-23 14:24:00,
2013-01-23 07:33:00,34.0,-99.9,-100.00,SSW,209,16.0,22.0,-999,-99.99,,,-99.99,,2013-01-23 14:33:00,
2013-01-23 07:43:00,34.0,-99.9,-100.00,SSW,204,16.0,22.0,-999,-99.99,,,-99.99,,2013-01-23 14:43:00,
2013-01-23 07:53:00,34.0,-99.9,-100.00,SSW,204,16.0,22.0,-999,-99.99,,,-99.99,,2013-01-23 14:53:00,
2013-01-23 08:03:00,35.0,-99.9,-100.00,SSW,194,19.0,28.0,-999,-99.99,,,-99.99,,2013-01-23 15:03:00,
2013-01-23 08:13:00,36.0,-99.9,-100.00,SSW,197,21.0,29.0,-999,-99.99,,,-99.99,,2013-01-23 15:13:00,
2013-01-23 08:23:00,36.0,-99.9,-100.00,SSW,197,21.0,29.0,-999,-99.99,,,-99.99,,2013-01-23 15:23:00,
2013-01-23 08:33:00,36.0,-99.9,-100.00,SSW,197,21.0,29.0,-999,-99.99,,,-99.99,,2013-01-23 15:33:00,
2013-01-23 08:44:00,35.0,-99.9,-100.00,SSW,196,18.0,24.0,-999,-99.99,,,-99.99,,2013-01-23 15:44:00,
2013-01-23 08:53:00,35.0,-99.9,-100.00,SSW,196,18.0,24.0,-999,-99.99,,,-99.99,,2013-01-23 15:53:00,
2013-01-23 09:03:00,36.0,-99.9,-100.00,SSW,207,17.0,26.0,-999,-99.99,,,-99.99,,2013-01-23 16:03:00,
2013-01-23 09:12:00,36.0,-99.9,-100.00,SSW,203,15.0,27.0,-999,-99.99,,,-99.99,,2013-01-23 16:12:00,
2013-01-23 09:23:00,36.0,-99.9,-100.00,SSW,203,15.0,27.0,-999,-99.99,,,-99.99,,2013-01-23 16:23:00,
2013-01-23 09:33:00,36.0,-99.9,-100.00,SSW,203,15.0,27.0,-999,-99.99,,,-99.99,,2013-01-23 16:33:00,
2013-01-23 09:43:00,36.0,-99.9,-100.00,SSW,201,21.0,30.0,-999,-99.99,,,-99.99,,2013-01-23 16:43:00,
2013-01-23 09:53:00,36.0,-99.9,-100.00,SSW,201,21.0,30.0,-999,-99.99,,,-99.99,,2013-01-23 16:53:00,
2013-01-23 10:03:00,36.0,-99.9,-100.00,SSW,212,20.0,32.0,-999,-99.99,,,-99.99,,2013-01-23 17:03:00,
2013-01-23 10:13:00,37.0,-99.9,-100.00,South,185,19.0,31.0,-999,-99.99,,,-99.99,,2013-01-23 17:13:00,
2013-01-23 10:23:00,37.0,-99.9,-100.00,South,185,19.0,31.0,-999,-99.99,,,-99.99,,2013-01-23 17:23:00,
2013-01-23 10:34:00,37.0,-99.9,-100.00,South,185,19.0,31.0,-999,-99.99,,,-99.99,,2013-01-23 17:34:00,
2013-01-23 10:43:00,37.0,-99.9,-100.00,SSW,205,21.0,37.0,-999,-99.99,,,-99.99,,2013-01-23 17:43:00,
2013-01-23 10:53:00,37.0,-99.9,-100.00,SSW,205,21.0,37.0,-999,-99.99,,,-99.99,,2013-01-23 17:53:00,
2013-01-23 11:04:00,38.0,-99.9,-100.00,SSW,197,20.0,31.0,-999,-99.99,,,-99.99,,2013-01-23 18:04:00,
2013-01-23 11:13:00,38.0,-99.9,-100.00,SSW,204,19.0,30.0,-999,-99.99,,,-99.99,,2013-01-23 18:13:00,
2013-01-23 11:24:00,38.0,-99.9,-100.00,SSW,204,19.0,30.0,-999,-99.99,,,-99.99,,2013-01-23 18:24:00,
2013-01-23 11:33:00,38.0,-99.9,-100.00,SSW,204,19.0,30.0,-999,-99.99,,,-99.99,,2013-01-23 18:33:00,
2013-01-23 11:44:00,38.0,-99.9,-100.00,SW,216,20.0,31.0,-999,-99.99,,,-99.99,,2013-01-23 18:44:00,
2013-01-23 11:53:00,38.0,-99.9,-100.00,SW,216,20.0,31.0,-999,-99.99,,,-99.99,,2013-01-23 18:53:00,
2013-01-23 12:03:00,38.0,-99.9,-100.00,SW,214,17.0,30.0,-999,-99.99,,,-99.99,,2013-01-23 19:03:00,
2013-01-23 12:13:00,38.0,-99.9,-100.00,South,180,18.0,34.0,-999,-99.99,,,-99.99,,2013-01-23 19:13:00,
2013-01-23 12:23:00,38.0,-99.9,-100.00,South,180,18.0,34.0,-999,-99.99,,,-99.99,,2013-01-23 19:23:00,
2013-01-23 12:33:00,38.0,-99.9,-100.00,South,180,18.0,34.0,-999,-99.99,,,-99.99,,2013-01-23 19:33:00,
2013-01-23 12:43:00,37.0,-99.9,-100.00,South,191,18.0,32.0,-999,-99.99,,,-99.99,,2013-01-23 19:43:00,
2013-01-23 12:53:00,37.0,-99.9,-100.00,South,191,18.0,32.0,-999,-99.99,,,-99.99,,2013-01-23 19:53:00,
2013-01-23 13:03:00,36.0,-99.9,-100.00,SSW,201,18.0,31.0,-999,-99.99,,,-99.99,,2013-01-23 20:03:00,
2013-01-23 13:13:00,37.0,-99.9,-100.00,SW,221,22.0,39.0,-999,-99.99,,,-99.99,,2013-01-23 20:13:00,
2013-01-23 13:23:00,37.0,-99.9,-100.00,SW,221,22.0,39.0,-999,-99.99,,,-99.99,,2013-01-23 20:23:00,
2013-01-23 13:33:00,37.0,-99.9,-100.00,SW,221,22.0,39.0,-999,-99.99,,,-99.99,,2013-01-23 20:33:00,
2013-01-23 13:43:00,37.0,-99.9,-100.00,SSW,203,18.0,34.0,-999,-99.99,,,-99.99,,2013-01-23 20:43:00,
2013-01-23 13:54:00,37.0,-99.9,-100.00,SSW,203,18.0,34.0,-999,-99.99,,,-99.99,,2013-01-23 20:54:00,
2013-01-23 14:03:00,37.0,-99.9,-100.00,South,191,17.0,33.0,-999,-99.99,,,-99.99,,2013-01-23 21:03:00,
2013-01-23 14:12:00,36.0,-99.9,-100.00,SW,218,22.0,36.0,-999,-99.99,,,-99.99,,2013-01-23 21:12:00,
2013-01-23 14:23:00,36.0,-99.9,-100.00,SW,218,22.0,36.0,-999,-99.99,,,-99.99,,2013-01-23 21:23:00,
2013-01-23 14:34:00,36.0,-99.9,-100.00,SW,218,22.0,36.0,-999,-99.99,,,-99.99,,2013-01-23 21:34:00,
2013-01-23 14:43:00,35.0,-99.9,-100.00,SW,227,20.0,31.0,-999,-99.99,,,-99.99,,2013-01-23 21:43:00,
2013-01-23 14:53:00,35.0,-99.9,-100.00,SW,227,20.0,31.0,-999,-99.99,,,-99.99,,2013-01-23 21:53:00,
2013-01-23 15:03:00,35.0,-99.9,-100.00,SW,221,21.0,35.0,-999,-99.99,,,-99.99,,2013-01-23 22:03:00,
2013-01-23 15:13:00,36.0,-99.9,-100.00,SW,216,16.0,29.0,-999,-99.99,,,-99.99,,2013-01-23 22:13:00,
2013-01-23 15:23:00,36.0,-99.9,-100.00,SW,216,16.0,29.0,-999,-99.99,,,-99.99,,2013-01-23 22:23:00,
2013-01-23 15:33:00,36.0,-99.9,-100.00,SW,216,16.0,29.0,-999,-99.99,,,-99.99,,2013-01-23 22:33:00,
2013-01-23 15:43:00,34.0,-99.9,-100.00,SW,216,21.0,32.0,-999,-99.99,,,-99.99,,2013-01-23 22:43:00,
2013-01-23 15:53:00,34.0,-99.9,-100.00,SW,216,21.0,32.0,-999,-99.99,,,-99.99,,2013-01-23 22:53:00,
2013-01-23 16:03:00,34.0,-99.9,-100.00,SSW,200,21.0,36.0,-999,-99.99,,,-99.99,,2013-01-23 23:03:00,
2013-01-23 16:13:00,34.0,-99.9,-100.00,South,175,22.0,39.0,-999,-99.99,,,-99.99,,2013-01-23 23:13:00,
2013-01-23 16:23:00,34.0,-99.9,-100.00,South,175,22.0,39.0,-999,-99.99,,,-99.99,,2013-01-23 23:23:00,
2013-01-23 16:33:00,34.0,-99.9,-100.00,South,175,22.0,39.0,-999,-99.99,,,-99.99,,2013-01-23 23:33:00,
2013-01-23 16:43:00,32.0,-99.9,-100.00,SW,222,20.0,31.0,-999,-99.99,,,-99.99,,2013-01-23 23:43:00,
2013-01-23 16:53:00,32.0,-99.9,-100.00,SW,222,20.0,31.0,-999,-99.99,,,-99.99,,2013-01-23 23:53:00,
2013-01-23 17:03:00,32.0,-99.9,-100.00,SW,222,18.0,35.0,-999,-99.99,,,-99.99,,2013-01-24 00:03:00,
2013-01-23 17:12:00,32.0,-99.9,-100.00,SSW,213,22.0,34.0,-999,-99.99,,,-99.99,,2013-01-24 00:12:00,
2013-01-23 17:23:00,32.0,-99.9,-100.00,SSW,213,22.0,34.0,-999,-99.99,,,-99.99,,2013-01-24 00:23:00,
2013-01-23 17:33:00,32.0,-99.9,-100.00,SSW,213,22.0,34.0,-999,-99.99,,,-99.99,,2013-01-24 00:33:00,
2013-01-23 17:43:00,32.0,-99.9,-100.00,SSW,207,20.0,31.0,-999,-99.99,,,-99.99,,2013-01-24 00:43:00,
2013-01-23 17:53:00,32.0,-99.9,-100.00,SSW,207,20.0,31.0,-999,-99.99,,,-99.99,,2013-01-24 00:53:00,
2013-01-23 18:03:00,32.0,-99.9,-100.00,SSW,195,20.0,30.0,-999,-99.99,,,-99.99,,2013-01-24 01:03:00,
2013-01-23 18:13:00,31.0,-99.9,-100.00,South,178,19.0,33.0,-999,-99.99,,,-99.99,,2013-01-24 01:13:00,
2013-01-23 18:23:00,31.0,-99.9,-100.00,South,178,19.0,33.0,-999,-99.99,,,-99.99,,2013-01-24 01:23:00,
2013-01-23 18:33:00,31.0,-99.9,-100.00,South,178,19.0,33.0,-999,-99.99,,,-99.99,,2013-01-24 01:33:00,
2013-01-23 18:43:00,31.0,-99.9,-100.00,South,185,21.0,33.0,-999,-99.99,,,-99.99,,2013-01-24 01:43:00,
2013-01-23 18:53:00,31.0,-99.9,-100.00,South,185,21.0,33.0,-999,-99.99,,,-99.99,,2013-01-24 01:53:00,
2013-01-23 19:03:00,31.0,-99.9,-100.00,South,181,22.0,36.0,-999,-99.99,,,-99.99,,2013-01-24 02:03:00,
2013-01-23 19:12:00,31.0,-99.9,-100.00,South,175,22.0,33.0,-999,-99.99,,,-99.99,,2013-01-24 02:12:00,
2013-01-23 19:23:00,31.0,-99.9,-100.00,South,175,22.0,33.0,-999,-99.99,,,-99.99,,2013-01-24 02:23:00,
2013-01-23 19:33:00,31.0,-99.9,-100.00,South,175,22.0,33.0,-999,-99.99,,,-99.99,,2013-01-24 02:33:00,
2013-01-23 19:43:00,31.0,-99.9,-100.00,South,175,22.0,33.0,-999,-99.99,,,-99.99,,2013-01-24 02:43:00,
2013-01-23 20:03:00,30.0,-99.9,-100.00,SSE,168,29.0,40.0,-999,-99.99,,,-99.99,,2013-01-24 03:03:00,
2013-01-23 20:12:00,31.0,-99.9,-100.00,South,169,30.0,44.0,-999,-99.99,,,-99.99,,2013-01-24 03:12:00,
2013-01-23 20:22:00,31.0,-99.9,-100.00,South,169,30.0,44.0,-999,-99.99,,,-99.99,,2013-01-24 03:22:00,
2013-01-23 20:33:00,31.0,-99.9,-100.00,South,169,30.0,44.0,-999,-99.99,,,-99.99,,2013-01-24 03:33:00,
2013-01-23 20:43:00,31.0,-99.9,-100.00,SSE,162,28.0,36.0,-999,-99.99,,,-99.99,,2013-01-24 03:43:00,
2013-01-23 20:53:00,31.0,-99.9,-100.00,SSE,162,28.0,36.0,-999,-99.99,,,-99.99,,2013-01-24 03:53:00,
2013-01-23 21:03:00,30.0,-99.9,-100.00,SSE,162,26.0,36.0,-999,-99.99,,,-99.99,,2013-01-24 04:03:00,
2013-01-23 21:13:00,30.0,-99.9,-100.00,SSE,164,25.0,34.0,-999,-99.99,,,-99.99,,2013-01-24 04:13:00,
2013-01-23 21:22:00,30.0,-99.9,-100.00,SSE,164,25.0,34.0,-999,-99.99,,,-99.99,,2013-01-24 04:22:00,
2013-01-23 21:30:00,31.0,-99.9,-100.00,SSE,164,23.0,32.0,-999,-99.99,,,-99.99,,2013-01-24 04:30:00,
2013-01-23 21:33:00,30.0,-99.9,-100.00,SSE,164,25.0,34.0,-999,-99.99,,,-99.99,,2013-01-24 04:33:00,
2013-01-23 21:43:00,31.0,-99.9,-100.00,South,172,23.0,32.0,-999,-99.99,,,-99.99,,2013-01-24 04:43:00,
2013-01-23 21:53:00,31.0,-99.9,-100.00,South,172,23.0,32.0,-999,-99.99,,,-99.99,,2013-01-24 04:53:00,
2013-01-23 22:03:00,31.0,-99.9,-100.00,SSE,164,23.0,32.0,-999,-99.99,,,-99.99,,2013-01-24 05:03:00,
2013-01-23 22:12:00,31.0,-99.9,-100.00,SSE,164,23.0,32.0,-999,-99.99,,,-99.99,,2013-01-24 05:12:00,
2013-01-23 22:23:00,31.0,-99.9,-100.00,SSE,164,23.0,32.0,-999,-99.99,,,-99.99,,2013-01-24 05:23:00,
2013-01-23 22:43:00,30.0,-99.9,-100.00,SSE,163,27.0,39.0,-999,-99.99,,,-99.99,,2013-01-24 05:43:00,
2013-01-23 22:53:00,30.0,-99.9,-100.00,SSE,163,27.0,39.0,-999,-99.99,,,-99.99,,2013-01-24 05:53:00,
2013-01-23 23:03:00,30.0,-99.9,-100.00,South,172,23.0,41.0,-999,-99.99,,,-99.99,,2013-01-24 06:03:00,
2013-01-23 23:12:00,30.0,-99.9,-100.00,South,178,21.0,29.0,-999,-99.99,,,-99.99,,2013-01-24 06:12:00,
2013-01-23 23:22:00,30.0,-99.9,-100.00,South,178,21.0,29.0,-999,-99.99,,,-99.99,,2013-01-24 06:22:00,
2013-01-23 23:33:00,30.0,-99.9,-100.00,South,178,21.0,29.0,-999,-99.99,,,-99.99,,2013-01-24 06:33:00,
2013-01-23 23:43:00,30.0,-99.9,-100.00,South,181,22.0,35.0,-999,-99.99,,,-99.99,,2013-01-24 06:43:00,
2013-01-23 23:53:00,30.0,-99.9,-100.00,South,181,22.0,35.0,-999,-99.99,,,-99.99,,2013-01-24 06:53:00,